AirNav   Bose A20 Aviation Headset
 
 752 users online  

S77 Magee Airport
Coeur d'Alene, Idaho, USA

GOING TO COEUR D'ALENE?


FAA INFORMATION EFFECTIVE 11 OCTOBER 2018

Location

FAA Identifier: S77
Lat/Long: 47-50-14.6970N / 116-15-48.6460W
47-50.244950N / 116-15.810767W
47.8374158 / -116.2635128
(estimated)
Elevation: 3002 ft. / 915 m (estimated)
Variation: 19E (1985)
From city: 23 miles NE of COEUR D'ALENE, ID
Time zone: UTC -7 (UTC -8 during Standard Time)
Zip code: 83803

Airport Operations

Airport use: Open to the public
Control tower: no
ARTCC: SEATTLE CENTER
FSS: BOISE FLIGHT SERVICE STATION
NOTAMs facility: BOI (NOTAM-D service available)
Attendance: UNATNDD
Wind indicator: yes
Segmented circle: yes

Airport Communications

CTAF: 122.9

Nearby radio navigation aids

VOR radial/distance  VOR name  Freq  Var
COEr061/22.8COEUR D'ALENE VOR/DME108.8019E
MLPr297/33.8MULLAN PASS VOR/DME117.8015E

 
NDB name  Hdg/Dist  Freq  Var  ID
SANDPOE142/29.726414ESZT ... --.. -

Airport Services

Parking: tiedowns
Airframe service: NONE
Powerplant service: NONE
Bottled oxygen: NONE
Bulk oxygen: NONE

Runway Information

Runway 1/19

Dimensions: 2200 x 150 ft. / 671 x 46 m
FIRST 300 FT OF N END VERY ROUGH.
Surface: turf, in fair condition
Runway edge markings: 01/19 EDGES & THRS MARKED WITH WHITE ROCKS.
RUNWAY 1  RUNWAY 19
Traffic pattern: leftleft
Displaced threshold: no300 ft.
Obstructions: 500 ft. hill, 900 ft. from runway, 200 ft. left of centerline, 1:1 slope to clear
+17 FT ROAD AT 65 FT ON CNTRLN.
10 ft. brush, 120 ft. right of centerline

Airport Ownership and Management from official FAA records

Ownership: Publicly-owned
Owner: STATE OF IDAHO ITD, DIV AERO
BOX 7129
BOISE, ID 83707-1129
Phone 208-334-8775
Manager: DIVISION ADMIN
BOX 7129
BOISE, ID 83707-1129
Phone 208-334-8775

Airport Operational Statistics

Aircraft operations: avg 21/week *
100% transient general aviation
* for 12-month period ending 31 August 2018

Additional Remarks

NO WINTER MAINT.
RCMD LAND RWY 19; TKOF RWY 01 WHEN WIND CONDS PERMIT.
HEAVY SNOWMOBLILE ACTIVITY DURING WINTER MONTHS.
RY 01/19 NORTH 500 FT CLOSED APRIL 1ST - JUL 15TH.

Instrument Procedures

There are no published instrument procedures at S77.

Some nearby airports with instrument procedures:

KCOE - Coeur d'Alene Airport - Pappy Boyington Field (23 nm W)
KSZT - Sandpoint Airport (30 nm NW)
S59 - Libby Airport (41 nm NE)
KSFF - Felts Field Airport (44 nm W)
KDEW - Deer Park Airport (48 nm W)
 
Loc | Ops | Rwys | IFR | FBO | Links
Com | Nav | Svcs | Stats | Notes


 
Area around S77 (Magee Airport)
 
Road maps at: MapQuest Bing Google
 
Aerial photo
WARNING: Photo may not be current or correct
Aerial photo of S77 (Magee Airport)
Taken in 2004

Do you have a better or more recent aerial photo of Magee Airport that you would like to share? If so, please send us your photo.

 
Sectional chart

 
Airport distance calculator
Flying to Magee Airport? Find the distance to fly.

From to S77

Sunrise and sunset
Times for 19-Oct-2018
 Local
(UTC-7)
 Zulu
(UTC)
Morning civil twilight06:4013:40
Sunrise07:1114:11
Sunset17:4900:49
Evening civil twilight18:2001:20

Current date and time
Zulu (UTC)  20-Oct-2018 03:48:14
Local (UTC-7)  19-Oct-2018 20:48:14
 
METAR
KCOE 
23nm W 
200256Z AUTO 03003KT 10SM CLR 07/02 A3031 RMK AO2 SLP294 6//// T00720022 56004 PNO $
KSZT 
30nm NW 
200335Z AUTO 00000KT 10SM CLR 04/02 A3031 RMK AO2
KMLP 
34nm SE 
200253Z AUTO 27004KT 10SM CLR 10/M06 A3040 RMK AO2 SLP231 T01001061 57004
KTHM 
43nm E 
SuperAWOS
200155Z AUTO 00000KT 10SM 07/02 A3034
KSFF 
43nm W 
200253Z AUTO 06003KT 10SM CLR 09/03 A3030 RMK AO2 SLP268 T00940033 56005
TAF
KCOE 
23nm W 
191732Z 1918/2018 06005KT P6SM SCT250= TAF KEAT 191732Z 1918/2018 12004KT P6SM FEW250 FM200600 30004KT P6SM SKC
NOTAMs
Click for the latest NOTAMs
NOTAMs are issued by the DoD/FAA and will open in a separate window not controlled by AirNav.

 

 
 

Would you like to see your business listed on this page?

 If your business provides an interesting product or service to pilots, flight crews, aircraft, or users of the Magee Airport, you should consider listing it here.  To start the listing process, click on the button below
 
Add a business
 

Other Pages about Magee Airport

www.flyidaho.org/...
skychickadventures.com/travel-images.asp?id=84
 
Update a link
 
Copyright © AirNav, LLC. All rights reserved. Privacy Policy  Contact